createdAt,value
2022-11-20T00:01:08.550Z,3.87
2022-11-20T00:03:39.588Z,4.43
2022-11-20T00:06:11.701Z,3.90
2022-11-20T00:08:39.822Z,3.50
2022-11-20T00:11:14.226Z,3.43
2022-11-20T00:13:44.431Z,3.70
2022-11-20T00:16:14.242Z,3.43
2022-11-20T00:18:43.307Z,3.80
2022-11-20T00:21:15.125Z,3.70
2022-11-20T00:23:44.022Z,3.70
2022-11-20T00:26:13.830Z,3.60
2022-11-20T00:28:45.456Z,4.23
2022-11-20T00:31:15.736Z,3.77
2022-11-20T00:33:44.462Z,3.83
2022-11-20T00:36:15.994Z,3.60
2022-11-20T00:38:44.644Z,3.77
2022-11-20T00:41:15.270Z,4.27
2022-11-20T00:43:44.635Z,3.80
2022-11-20T00:46:15.307Z,3.87
2022-11-20T00:48:44.492Z,3.70
2022-11-20T00:51:18.102Z,3.63
2022-11-20T00:53:46.258Z,3.30
2022-11-20T00:56:16.043Z,3.70
2022-11-20T00:58:46.170Z,3.87
2022-11-20T01:01:16.266Z,3.67
2022-11-20T01:03:46.496Z,3.60
2022-11-20T01:06:18.578Z,3.67
2022-11-20T01:08:46.992Z,3.70
2022-11-20T01:11:17.503Z,3.57
2022-11-20T01:13:49.027Z,3.70
2022-11-20T01:16:20.220Z,3.63
2022-11-20T01:18:52.262Z,3.30
2022-11-20T01:21:24.060Z,3.20
2022-11-20T01:23:53.341Z,3.40
2022-11-20T01:26:24.485Z,3.67
2022-11-20T01:28:53.010Z,3.73
2022-11-20T01:31:25.935Z,3.67
2022-11-20T01:33:55.514Z,3.47
2022-11-20T01:36:27.427Z,3.80
2022-11-20T01:38:56.719Z,3.80
2022-11-20T01:41:43.763Z,3.90
2022-11-20T01:44:13.543Z,3.50
2022-11-20T01:46:47.911Z,3.53
2022-11-20T01:49:23.314Z,3.80
2022-11-20T01:52:00.085Z,3.83
2022-11-20T01:54:36.236Z,3.80
2022-11-20T01:57:09.218Z,3.30
2022-11-20T01:59:42.077Z,3.87
2022-11-20T02:02:10.428Z,3.70
2022-11-20T02:04:39.285Z,3.97
2022-11-20T02:07:11.885Z,4.13
2022-11-20T02:09:40.160Z,3.80
2022-11-20T02:12:28.712Z,3.90
2022-11-20T02:14:56.142Z,3.50
2022-11-20T02:17:24.325Z,4.10
2022-11-20T02:19:52.591Z,3.80
2022-11-20T02:22:31.484Z,3.60
2022-11-20T02:25:04.947Z,4.03
2022-11-20T02:27:33.042Z,3.87
2022-11-20T02:30:04.915Z,3.87
2022-11-20T02:32:34.494Z,3.57
2022-11-20T02:35:11.605Z,3.70
2022-11-20T02:37:42.373Z,3.90
2022-11-20T02:40:12.927Z,3.70
2022-11-20T02:42:40.936Z,3.87
2022-11-20T02:45:12.073Z,3.90
2022-11-20T02:47:40.285Z,3.70
2022-11-20T02:50:08.905Z,3.30
2022-11-20T02:52:36.721Z,3.87
2022-11-20T02:55:05.878Z,3.43
2022-11-20T02:57:35.287Z,3.73
2022-11-20T03:00:03.664Z,3.90
2022-11-20T03:02:32.752Z,3.60
2022-11-20T03:05:00.841Z,3.47
2022-11-20T03:07:28.772Z,3.63
2022-11-20T03:10:09.826Z,3.50
2022-11-20T03:12:39.215Z,3.60
2022-11-20T03:15:07.946Z,3.87
2022-11-20T03:17:36.040Z,3.40
2022-11-20T03:20:05.166Z,3.90
2022-11-20T03:22:33.058Z,3.47
2022-11-20T03:25:01.006Z,3.50
2022-11-20T03:27:29.055Z,3.30
2022-11-20T03:29:58.285Z,3.47
2022-11-20T03:32:26.270Z,3.60
2022-11-20T03:34:54.258Z,3.50
2022-11-20T03:37:22.128Z,3.50
2022-11-20T03:39:50.043Z,3.40
2022-11-20T03:42:31.745Z,3.40
2022-11-20T03:45:01.007Z,3.37
2022-11-20T03:47:29.569Z,3.60
2022-11-20T03:49:57.408Z,3.30
2022-11-20T03:52:25.506Z,3.13
2022-11-20T03:54:53.407Z,3.57
2022-11-20T03:57:21.444Z,3.67
2022-11-20T03:59:51.821Z,3.33
2022-11-20T04:02:21.378Z,3.40
2022-11-20T04:04:49.505Z,3.10
2022-11-20T04:07:17.443Z,3.27
2022-11-20T04:09:45.371Z,3.60
2022-11-20T04:12:13.272Z,3.43
2022-11-20T04:14:41.198Z,3.23
2022-11-20T04:17:09.361Z,3.27
2022-11-20T04:19:40.999Z,3.47
2022-11-20T04:22:09.611Z,3.20
2022-11-20T04:24:39.229Z,3.20
2022-11-20T04:27:07.160Z,3.30
2022-11-20T04:29:35.078Z,3.47
2022-11-20T04:32:02.947Z,3.43
2022-11-20T04:34:33.250Z,3.43
2022-11-20T04:37:02.608Z,3.33
2022-11-20T04:39:30.912Z,3.47
2022-11-20T04:42:12.738Z,3.50
2022-11-20T04:44:40.604Z,3.57
2022-11-20T04:47:08.500Z,4.20
2022-11-20T04:49:36.576Z,3.37
2022-11-20T04:52:06.046Z,3.70
2022-11-20T04:54:33.869Z,3.37
2022-11-20T04:57:02.090Z,3.60
2022-11-20T04:59:29.979Z,3.53
2022-11-20T05:01:58.303Z,3.60
2022-11-20T05:04:26.272Z,3.70
2022-11-20T05:06:54.177Z,3.37
2022-11-20T05:09:23.726Z,3.73
2022-11-20T05:11:51.859Z,3.23
2022-11-20T05:14:20.238Z,3.60
2022-11-20T05:16:48.313Z,3.70
2022-11-20T05:19:16.582Z,3.23
2022-11-20T05:21:44.492Z,3.70
2022-11-20T05:24:12.497Z,3.40
2022-11-20T05:26:41.820Z,3.37
2022-11-20T05:29:12.930Z,3.60
2022-11-20T05:31:42.148Z,3.70
2022-11-20T05:34:10.283Z,3.60
2022-11-20T05:36:38.140Z,3.50
2022-11-20T05:39:06.341Z,3.83
2022-11-20T05:41:35.745Z,4.40
2022-11-20T05:44:05.295Z,3.97
2022-11-20T05:46:33.251Z,4.00
2022-11-20T05:49:01.131Z,3.53
2022-11-20T05:51:29.670Z,4.00
2022-11-20T05:53:59.660Z,3.80
2022-11-20T05:56:27.619Z,3.90
2022-11-20T05:58:58.752Z,4.23
2022-11-20T06:01:28.744Z,3.83
2022-11-20T06:03:56.821Z,3.83
2022-11-20T06:06:26.224Z,4.17
2022-11-20T06:08:54.279Z,3.57
2022-11-20T06:11:22.226Z,3.70
2022-11-20T06:13:50.789Z,3.50
2022-11-20T06:16:22.923Z,4.37
2022-11-20T06:18:52.297Z,3.90
2022-11-20T06:21:22.051Z,4.50
2022-11-20T06:23:51.196Z,4.77
2022-11-20T06:26:20.808Z,4.90
2022-11-20T06:28:49.243Z,5.00
2022-11-20T06:31:20.102Z,4.70
2022-11-20T06:33:48.031Z,5.43
2022-11-20T06:36:19.182Z,6.07
2022-11-20T06:38:47.310Z,7.00
2022-11-20T06:41:18.044Z,8.50
2022-11-20T06:43:48.939Z,8.00
2022-11-20T06:46:19.566Z,7.93
2022-11-20T06:48:48.606Z,7.23
2022-11-20T06:51:18.770Z,8.03
2022-11-20T06:53:46.793Z,7.77
2022-11-20T06:56:14.807Z,7.43
2022-11-20T06:58:45.193Z,7.17
2022-11-20T07:01:15.813Z,6.97
2022-11-20T07:03:44.546Z,6.50
2022-11-20T07:06:12.651Z,6.60
2022-11-20T07:08:42.146Z,5.73
2022-11-20T07:11:10.310Z,5.87
2022-11-20T07:13:38.172Z,5.20
2022-11-20T07:16:08.696Z,5.10
2022-11-20T07:18:37.273Z,4.87
2022-11-20T07:21:06.606Z,4.77
2022-11-20T07:23:34.629Z,5.07
2022-11-20T07:26:06.947Z,4.60
2022-11-20T07:28:35.913Z,4.30
2022-11-20T07:31:05.372Z,4.40
2022-11-20T07:33:33.194Z,4.90
2022-11-20T07:36:01.266Z,4.73
2022-11-20T07:38:29.804Z,4.57
2022-11-20T07:40:58.560Z,4.77
2022-11-20T07:43:28.067Z,4.50
2022-11-20T07:45:57.269Z,4.57
2022-11-20T07:48:25.232Z,4.70
2022-11-20T07:50:56.352Z,4.90
2022-11-20T07:53:24.548Z,4.27
2022-11-20T07:55:53.529Z,4.70
2022-11-20T07:58:21.912Z,4.50
2022-11-20T08:00:51.466Z,4.73
2022-11-20T08:03:24.649Z,4.70
2022-11-20T08:05:53.435Z,4.03
2022-11-20T08:08:21.913Z,4.57
2022-11-20T08:10:50.184Z,5.10
2022-11-20T08:13:35.620Z,4.90
2022-11-20T08:16:05.200Z,5.20
2022-11-20T08:18:33.583Z,4.30
2022-11-20T08:21:04.770Z,4.50
2022-11-20T08:23:32.658Z,4.57
2022-11-20T08:26:00.545Z,4.53
2022-11-20T08:28:28.505Z,4.43
2022-11-20T08:31:00.961Z,4.23
2022-11-20T08:33:31.055Z,3.93
2022-11-20T08:36:01.375Z,3.83
2022-11-20T08:38:29.340Z,4.13
2022-11-20T08:41:16.234Z,4.27
2022-11-20T08:43:44.087Z,4.20
2022-11-20T08:46:11.969Z,3.97
2022-11-20T08:48:41.423Z,3.67
2022-11-20T08:51:09.333Z,3.00
2022-11-20T08:53:37.211Z,3.30
2022-11-20T08:56:05.618Z,4.00
2022-11-20T08:58:54.958Z,3.30
2022-11-20T09:01:22.791Z,3.30
2022-11-20T09:03:52.290Z,3.27
2022-11-20T09:06:20.648Z,3.47
2022-11-20T09:08:48.709Z,3.30
2022-11-20T09:11:16.636Z,3.50
2022-11-20T09:13:44.499Z,2.93
2022-11-20T09:16:12.746Z,3.00
2022-11-20T09:18:40.907Z,3.27
2022-11-20T09:21:13.496Z,3.00
2022-11-20T09:23:41.733Z,3.47
2022-11-20T09:26:12.392Z,3.27
2022-11-20T09:28:40.894Z,3.17
2022-11-20T09:31:10.172Z,3.83
2022-11-20T09:33:38.305Z,3.57
2022-11-20T09:36:06.978Z,3.80
2022-11-20T09:38:36.537Z,3.80
2022-11-20T09:41:06.250Z,3.70
2022-11-20T09:43:49.225Z,3.63
2022-11-20T09:46:28.015Z,3.47
2022-11-20T09:49:16.313Z,4.90
2022-11-20T09:51:52.674Z,4.10
2022-11-20T09:54:24.908Z,4.10
2022-11-20T09:56:55.929Z,3.70
2022-11-20T09:59:36.589Z,4.17
2022-11-20T10:02:09.463Z,4.17
2022-11-20T10:04:42.078Z,4.87
2022-11-20T10:07:31.801Z,4.87
2022-11-20T10:10:02.658Z,3.97
2022-11-20T10:12:47.444Z,4.87
2022-11-20T10:15:29.839Z,3.80
2022-11-20T10:18:15.771Z,4.40
2022-11-20T10:20:52.299Z,4.07
2022-11-20T10:23:42.758Z,5.00
2022-11-20T10:26:23.233Z,4.20
2022-11-20T10:29:04.736Z,3.70
2022-11-20T10:31:38.425Z,3.53
2022-11-20T10:34:19.378Z,3.23
2022-11-20T10:36:57.113Z,3.13
2022-11-20T10:39:34.587Z,3.20
2022-11-20T10:42:04.199Z,3.90
2022-11-20T10:44:55.159Z,3.13
2022-11-20T10:47:24.568Z,3.57
2022-11-20T10:49:56.033Z,3.60
2022-11-20T10:52:33.812Z,3.30
2022-11-20T10:55:14.263Z,3.80
2022-11-20T10:57:55.194Z,3.23
2022-11-20T11:00:23.526Z,3.10
2022-11-20T11:02:53.220Z,3.20
2022-11-20T11:05:35.899Z,3.40
2022-11-20T11:08:05.506Z,2.97
2022-11-20T11:10:39.305Z,3.43
2022-11-20T11:13:09.591Z,3.53
2022-11-20T11:15:42.014Z,3.30
2022-11-20T11:18:12.759Z,3.20
2022-11-20T11:20:41.050Z,3.70
2022-11-20T11:23:34.504Z,3.10
2022-11-20T11:26:04.725Z,3.57
2022-11-20T11:28:34.957Z,3.40
2022-11-20T11:31:03.039Z,3.50
2022-11-20T11:33:32.756Z,3.03
2022-11-20T11:36:02.871Z,3.17
2022-11-20T11:38:35.246Z,3.30
2022-11-20T11:41:04.445Z,3.27
2022-11-20T11:43:53.496Z,3.30
2022-11-20T11:46:31.573Z,3.00
2022-11-20T11:49:02.778Z,2.90
2022-11-20T11:51:38.537Z,2.40
2022-11-20T11:54:19.582Z,2.53
2022-11-20T11:56:48.235Z,2.47
2022-11-20T11:59:28.681Z,2.20
2022-11-20T12:02:02.580Z,2.17
2022-11-20T12:04:44.768Z,2.20
2022-11-20T12:07:44.786Z,2.53
2022-11-20T12:10:08.256Z,2.50
2022-11-20T12:12:41.394Z,2.80
2022-11-20T12:15:13.602Z,3.00
2022-11-20T12:17:41.781Z,2.30
2022-11-20T12:20:15.544Z,2.60
2022-11-20T12:22:53.904Z,3.47
2022-11-20T12:25:26.653Z,3.00
2022-11-20T12:28:16.310Z,2.83
2022-11-20T12:30:56.772Z,2.80
2022-11-20T12:33:45.125Z,2.33
2022-11-20T12:36:24.686Z,2.60
2022-11-20T12:39:09.919Z,2.27
2022-11-20T12:42:10.890Z,2.60
2022-11-20T12:45:11.974Z,2.63
2022-11-20T12:48:13.182Z,2.60
2022-11-20T12:53:53.389Z,2.50
2022-11-20T12:56:33.984Z,2.63
2022-11-20T12:59:15.857Z,2.57
2022-11-20T13:01:51.492Z,2.57
2022-11-20T13:04:36.155Z,2.60
2022-11-20T13:07:06.398Z,3.00
2022-11-20T13:09:38.794Z,2.60
2022-11-20T13:12:13.061Z,2.80
2022-11-20T13:14:48.409Z,2.77
2022-11-20T13:17:23.123Z,3.57
2022-11-20T13:19:55.614Z,3.17
2022-11-20T13:22:28.403Z,2.63
2022-11-20T13:24:57.078Z,2.60
2022-11-20T13:27:26.841Z,2.33
2022-11-20T13:30:05.527Z,2.70
2022-11-20T13:32:34.083Z,2.70
2022-11-20T13:35:06.723Z,2.70
2022-11-20T13:37:38.282Z,2.50
2022-11-20T13:40:23.665Z,2.90
2022-11-20T13:43:03.297Z,2.33
2022-11-20T13:45:33.568Z,2.77
2022-11-20T13:48:06.302Z,2.70
2022-11-20T13:50:53.491Z,2.83
2022-11-20T13:53:39.190Z,2.57
2022-11-20T13:56:17.623Z,2.67
2022-11-20T13:58:56.023Z,2.67
2022-11-20T14:01:26.581Z,2.90
2022-11-20T14:04:06.268Z,3.07
2022-11-20T14:06:41.352Z,3.03
2022-11-20T14:09:14.745Z,2.90
2022-11-20T14:11:49.641Z,3.20
2022-11-20T14:14:20.133Z,2.60
2022-11-20T14:16:48.994Z,3.10
2022-11-20T14:19:30.046Z,2.50
2022-11-20T14:22:12.390Z,2.50
2022-11-20T14:24:40.471Z,2.40
2022-11-20T14:27:15.123Z,2.87
2022-11-20T14:29:44.077Z,2.77
2022-11-20T14:32:12.763Z,3.10
2022-11-20T14:34:42.582Z,2.93
2022-11-20T14:37:17.234Z,3.47
2022-11-20T14:39:51.819Z,2.80
2022-11-20T14:42:21.591Z,2.90
2022-11-20T14:44:50.873Z,3.47
2022-11-20T14:47:23.501Z,4.00
2022-11-20T14:49:52.498Z,4.17
2022-11-20T14:52:23.769Z,4.47
2022-11-20T14:54:53.583Z,4.67
2022-11-20T14:57:27.675Z,4.07
2022-11-20T15:00:08.463Z,3.57
2022-11-20T15:02:36.724Z,3.60
2022-11-20T15:05:05.356Z,3.50
2022-11-20T15:07:37.390Z,3.60
2022-11-20T15:10:08.720Z,3.27
2022-11-20T15:12:40.960Z,2.70
2022-11-20T15:15:13.952Z,3.10
2022-11-20T15:17:43.010Z,3.00
2022-11-20T15:20:15.621Z,2.80
2022-11-20T15:22:45.209Z,2.97
2022-11-20T15:25:15.770Z,3.20
2022-11-20T15:27:43.954Z,3.33
2022-11-20T15:30:16.672Z,3.20
2022-11-20T15:32:45.251Z,3.20
2022-11-20T15:35:13.201Z,3.40
2022-11-20T15:37:42.504Z,3.20
2022-11-20T15:40:12.522Z,3.30
2022-11-20T15:43:00.520Z,3.50
2022-11-20T15:45:31.188Z,3.60
2022-11-20T15:47:59.685Z,3.83
2022-11-20T15:50:42.448Z,3.10
2022-11-20T15:53:12.350Z,3.73
2022-11-20T15:55:41.592Z,4.53
2022-11-20T15:58:09.509Z,3.50
2022-11-20T16:00:37.972Z,2.83
2022-11-20T16:03:06.194Z,3.43
2022-11-20T16:05:34.543Z,3.23
2022-11-20T16:08:04.974Z,3.23
2022-11-20T16:10:36.496Z,2.83
2022-11-20T16:13:23.193Z,2.90
2022-11-20T16:15:55.003Z,3.07
2022-11-20T16:18:24.052Z,2.97
2022-11-20T16:20:53.826Z,2.70
2022-11-20T16:23:22.743Z,2.87
2022-11-20T16:25:51.649Z,3.07
2022-11-20T16:28:21.188Z,2.80
2022-11-20T16:30:49.081Z,3.30
2022-11-20T16:33:19.030Z,3.00
2022-11-20T16:35:48.272Z,3.20
2022-11-20T16:38:16.246Z,3.20
2022-11-20T16:40:44.169Z,3.50
2022-11-20T16:43:15.720Z,3.60
2022-11-20T16:45:46.399Z,3.50
2022-11-20T16:48:15.970Z,3.77
2022-11-20T16:50:48.916Z,3.50
2022-11-20T16:53:17.301Z,3.60
2022-11-20T16:55:45.391Z,4.30
2022-11-20T16:58:13.467Z,4.30
2022-11-20T17:00:45.590Z,4.57
2022-11-20T17:03:19.030Z,4.70
2022-11-20T17:05:46.981Z,4.37
2022-11-20T17:08:14.841Z,4.80
2022-11-20T17:10:43.041Z,4.70
2022-11-20T17:13:11.426Z,4.53
2022-11-20T17:15:39.628Z,4.20
2022-11-20T17:18:08.254Z,4.37
2022-11-20T17:20:37.539Z,4.20
2022-11-20T17:23:05.495Z,4.20
2022-11-20T17:25:35.336Z,4.03
2022-11-20T17:28:03.743Z,4.23
2022-11-20T17:30:32.250Z,4.33
2022-11-20T17:33:00.712Z,5.00
2022-11-20T17:35:28.901Z,4.77
2022-11-20T17:37:59.049Z,4.83
2022-11-20T17:40:27.766Z,5.00
2022-11-20T17:42:59.409Z,4.80
2022-11-20T17:45:27.303Z,5.20
2022-11-20T17:47:55.593Z,5.03
2022-11-20T17:50:23.549Z,5.30
2022-11-20T17:52:51.465Z,5.07
2022-11-20T17:55:20.960Z,4.80
2022-11-20T17:57:53.682Z,4.90
2022-11-20T18:00:22.375Z,4.73
2022-11-20T18:02:51.222Z,4.90
2022-11-20T18:05:21.291Z,5.20
2022-11-20T18:07:54.147Z,5.03
2022-11-20T18:10:23.531Z,5.00
2022-11-20T18:12:53.144Z,5.30
2022-11-20T18:15:21.331Z,4.97
2022-11-20T18:17:49.561Z,5.97
2022-11-20T18:20:39.458Z,5.97
2022-11-20T18:23:05.965Z,5.60
2022-11-20T18:25:35.311Z,5.47
2022-11-20T18:28:03.159Z,6.03
2022-11-20T18:30:31.203Z,5.97
2022-11-20T18:32:59.301Z,6.00
2022-11-20T18:35:28.085Z,6.60
2022-11-20T18:37:55.996Z,6.77
2022-11-20T18:40:23.968Z,6.77
2022-11-20T18:43:10.922Z,6.97
2022-11-20T18:45:39.024Z,7.00
2022-11-20T18:48:07.196Z,7.20
2022-11-20T18:50:35.354Z,6.40
2022-11-20T18:53:03.340Z,7.13
2022-11-20T18:55:31.303Z,6.80
2022-11-20T18:58:01.151Z,6.90
2022-11-20T19:00:31.699Z,6.70
2022-11-20T19:02:59.625Z,6.07
2022-11-20T19:05:28.713Z,6.50
2022-11-20T19:07:56.765Z,6.07
2022-11-20T19:10:27.026Z,8.57
2022-11-20T19:12:55.188Z,9.70
2022-11-20T19:15:24.895Z,11.07
2022-11-20T19:17:53.415Z,11.10
2022-11-20T19:20:21.490Z,12.10
2022-11-20T19:22:53.667Z,11.97
2022-11-20T19:25:21.498Z,13.47
2022-11-20T19:27:49.553Z,12.90
2022-11-20T19:30:17.761Z,14.33
2022-11-20T19:32:47.108Z,12.90
2022-11-20T19:35:14.981Z,13.90
2022-11-20T19:37:43.350Z,14.53
2022-11-20T19:40:11.647Z,14.33
2022-11-20T19:42:39.726Z,12.73
2022-11-20T19:45:09.887Z,13.30
2022-11-20T19:48:07.237Z,15.00
2022-11-20T19:50:27.218Z,14.23
2022-11-20T19:52:58.733Z,13.13
2022-11-20T19:55:27.774Z,13.67
2022-11-20T19:57:56.131Z,14.77
2022-11-20T20:00:29.644Z,14.33
2022-11-20T20:03:01.374Z,14.60
2022-11-20T20:05:30.814Z,14.10
2022-11-20T20:07:58.729Z,13.57
2022-11-20T20:10:26.925Z,13.60
2022-11-20T20:12:55.013Z,13.67
2022-11-20T20:15:29.218Z,13.50
2022-11-20T20:17:57.195Z,12.67
2022-11-20T20:20:25.722Z,13.43
2022-11-20T20:22:55.144Z,13.60
2022-11-20T20:25:23.401Z,13.83
2022-11-20T20:27:52.430Z,13.20
2022-11-20T20:30:20.490Z,13.47
2022-11-20T20:32:53.307Z,14.40
2022-11-20T20:35:24.063Z,13.60
2022-11-20T20:37:52.486Z,13.37
2022-11-20T20:40:21.924Z,13.90
2022-11-20T20:42:49.881Z,13.33
2022-11-20T20:45:17.858Z,13.53
2022-11-20T20:47:45.825Z,13.77
2022-11-20T20:50:13.991Z,13.07
2022-11-20T20:52:42.669Z,13.00
2022-11-20T20:55:11.834Z,14.40
2022-11-20T20:57:41.800Z,13.90
2022-11-20T21:00:10.774Z,14.73
2022-11-20T21:02:39.531Z,14.63
2022-11-20T21:05:08.198Z,14.57
2022-11-20T21:07:56.361Z,14.53
2022-11-20T21:10:24.509Z,14.73
2022-11-20T21:12:53.807Z,14.97
2022-11-20T21:15:22.040Z,15.00
2022-11-20T21:17:51.043Z,14.53
2022-11-20T21:20:32.999Z,15.00
2022-11-20T21:23:00.946Z,14.73
2022-11-20T21:25:28.898Z,16.07
2022-11-20T21:27:58.778Z,15.00
2022-11-20T21:30:27.474Z,15.93
2022-11-20T21:32:56.948Z,16.03
2022-11-20T21:35:25.057Z,15.40
2022-11-20T21:37:53.214Z,15.83
2022-11-20T21:40:21.394Z,14.97
2022-11-20T21:42:49.792Z,14.93
2022-11-20T21:45:21.418Z,15.50
2022-11-20T21:47:51.329Z,15.17
2022-11-20T21:50:20.036Z,15.27
2022-11-20T21:52:49.088Z,15.60
2022-11-20T21:55:20.242Z,16.23
2022-11-20T21:57:48.323Z,14.70
2022-11-20T22:00:16.646Z,16.73
2022-11-20T22:02:46.210Z,15.10
2022-11-20T22:05:14.675Z,15.13
2022-11-20T22:07:45.513Z,16.23
2022-11-20T22:10:18.293Z,15.00
2022-11-20T22:12:49.217Z,15.50
2022-11-20T22:15:32.976Z,15.27
2022-11-20T22:18:14.681Z,15.67
2022-11-20T22:20:42.861Z,16.00
2022-11-20T22:23:10.714Z,15.77
2022-11-20T22:25:38.639Z,16.63
2022-11-20T22:28:06.802Z,16.83
2022-11-20T22:30:34.675Z,16.30
2022-11-20T22:33:02.628Z,15.80
2022-11-20T22:35:31.890Z,16.70
2022-11-20T22:37:59.757Z,17.10
2022-11-20T22:40:28.169Z,17.27
2022-11-20T22:42:56.026Z,16.57
2022-11-20T22:45:23.887Z,17.77
2022-11-20T22:47:51.986Z,17.30
2022-11-20T22:50:19.907Z,19.57
2022-11-20T22:52:49.336Z,19.93
2022-11-20T22:55:17.520Z,18.90
2022-11-20T22:57:45.354Z,18.93
2022-11-20T23:00:14.873Z,17.17
2022-11-20T23:02:45.224Z,17.30
2022-11-20T23:05:13.491Z,18.10
2022-11-20T23:07:41.445Z,17.37
2022-11-20T23:10:13.192Z,17.23
2022-11-20T23:12:41.033Z,17.30
2022-11-20T23:15:10.570Z,17.97
2022-11-20T23:17:38.479Z,17.40
2022-11-20T23:20:07.511Z,17.83
2022-11-20T23:22:35.341Z,17.30
2022-11-20T23:25:03.289Z,16.87
2022-11-20T23:27:32.507Z,17.53
2022-11-20T23:30:00.577Z,16.50
2022-11-20T23:32:28.489Z,17.17
2022-11-20T23:34:56.423Z,16.43
2022-11-20T23:37:24.331Z,15.97
2022-11-20T23:39:52.392Z,16.60
2022-11-20T23:42:20.566Z,16.67
2022-11-20T23:44:49.856Z,16.27
2022-11-20T23:47:17.865Z,16.87
2022-11-20T23:49:45.818Z,15.23
2022-11-20T23:52:13.702Z,16.57
2022-11-20T23:54:41.722Z,16.43
2022-11-20T23:57:09.615Z,16.17
2022-11-20T23:59:37.549Z,16.10
